sensor_id;sensor_type;location;lat;lon;timestamp;pressure;altitude;pressure_sealevel;temperature;humidity
70256;BME280;57669;52.624;-1.688;2023-02-12T00:01:28;103194.83;;;9.64;44.55
70256;BME280;57669;52.624;-1.688;2023-02-12T00:03:53;103191.04;;;9.64;44.89
70256;BME280;57669;52.624;-1.688;2023-02-12T00:06:19;103186.19;;;9.61;44.93
70256;BME280;57669;52.624;-1.688;2023-02-12T00:08:48;103185.88;;;10.08;44.05
70256;BME280;57669;52.624;-1.688;2023-02-12T00:11:11;103193.79;;;10.17;43.99
70256;BME280;57669;52.624;-1.688;2023-02-12T00:13:36;103191.48;;;9.39;45.10
70256;BME280;57669;52.624;-1.688;2023-02-12T00:16:04;103186.21;;;9.55;45.52
70256;BME280;57669;52.624;-1.688;2023-02-12T00:18:26;103180.23;;;9.56;45.13
70256;BME280;57669;52.624;-1.688;2023-02-12T00:20:52;103184.89;;;9.96;44.82
70256;BME280;57669;52.624;-1.688;2023-02-12T00:23:17;103181.28;;;10.04;44.08
70256;BME280;57669;52.624;-1.688;2023-02-12T00:25:43;103182.95;;;9.70;44.96
70256;BME280;57669;52.624;-1.688;2023-02-12T00:28:09;103185.50;;;9.65;45.16
70256;BME280;57669;52.624;-1.688;2023-02-12T00:30:34;103186.97;;;9.68;45.17
70256;BME280;57669;52.624;-1.688;2023-02-12T00:33:00;103182.20;;;9.43;45.26
70256;BME280;57669;52.624;-1.688;2023-02-12T00:35:26;103175.73;;;8.96;46.09
70256;BME280;57669;52.624;-1.688;2023-02-12T00:37:51;103176.04;;;9.50;45.74
70256;BME280;57669;52.624;-1.688;2023-02-12T00:40:16;103176.81;;;9.60;45.15
70256;BME280;57669;52.624;-1.688;2023-02-12T00:42:42;103175.34;;;9.91;45.13
70256;BME280;57669;52.624;-1.688;2023-02-12T00:45:08;103166.30;;;9.99;44.42
70256;BME280;57669;52.624;-1.688;2023-02-12T00:47:33;103165.41;;;9.58;44.98
70256;BME280;57669;52.624;-1.688;2023-02-12T00:49:58;103169.67;;;9.44;45.29
70256;BME280;57669;52.624;-1.688;2023-02-12T00:52:24;103172.11;;;9.17;45.95
70256;BME280;57669;52.624;-1.688;2023-02-12T00:54:49;103169.93;;;9.63;45.14
70256;BME280;57669;52.624;-1.688;2023-02-12T00:57:14;103170.26;;;9.86;44.66
70256;BME280;57669;52.624;-1.688;2023-02-12T00:59:40;103163.02;;;10.55;43.73
70256;BME280;57669;52.624;-1.688;2023-02-12T01:02:05;103167.90;;;9.67;44.93
70256;BME280;57669;52.624;-1.688;2023-02-12T01:04:31;103167.39;;;9.31;45.61
70256;BME280;57669;52.624;-1.688;2023-02-12T01:06:56;103170.48;;;8.90;46.18
70256;BME280;57669;52.624;-1.688;2023-02-12T01:09:22;103173.48;;;9.04;46.42
70256;BME280;57669;52.624;-1.688;2023-02-12T01:11:47;103172.03;;;9.96;44.75
70256;BME280;57669;52.624;-1.688;2023-02-12T01:14:13;103168.87;;;9.53;45.68
70256;BME280;57669;52.624;-1.688;2023-02-12T01:16:39;103165.22;;;10.13;44.14
70256;BME280;57669;52.624;-1.688;2023-02-12T01:19:05;103171.29;;;10.30;44.18
70256;BME280;57669;52.624;-1.688;2023-02-12T01:21:31;103170.54;;;9.97;44.38
70256;BME280;57669;52.624;-1.688;2023-02-12T01:23:56;103170.92;;;10.19;43.89
70256;BME280;57669;52.624;-1.688;2023-02-12T01:26:22;103181.59;;;9.98;44.81
70256;BME280;57669;52.624;-1.688;2023-02-12T01:28:49;103173.99;;;9.56;45.63
70256;BME280;57669;52.624;-1.688;2023-02-12T01:31:14;103173.35;;;9.34;45.50
70256;BME280;57669;52.624;-1.688;2023-02-12T01:33:38;103178.49;;;9.78;44.90
70256;BME280;57669;52.624;-1.688;2023-02-12T01:36:03;103178.91;;;9.54;44.91
70256;BME280;57669;52.624;-1.688;2023-02-12T01:38:29;103166.95;;;10.55;44.00
70256;BME280;57669;52.624;-1.688;2023-02-12T01:41:01;103170.48;;;9.66;44.88
70256;BME280;57669;52.624;-1.688;2023-02-12T01:43:20;103172.37;;;9.06;46.02
70256;BME280;57669;52.624;-1.688;2023-02-12T01:45:50;103171.57;;;9.75;44.95
70256;BME280;57669;52.624;-1.688;2023-02-12T01:48:11;103172.66;;;9.88;45.15
70256;BME280;57669;52.624;-1.688;2023-02-12T01:50:37;103173.10;;;8.95;46.28
70256;BME280;57669;52.624;-1.688;2023-02-12T01:53:01;103174.29;;;9.64;45.56
70256;BME280;57669;52.624;-1.688;2023-02-12T01:55:27;103164.64;;;9.25;45.75
70256;BME280;57669;52.624;-1.688;2023-02-12T01:57:52;103160.61;;;10.31;44.46
70256;BME280;57669;52.624;-1.688;2023-02-12T02:00:21;103171.18;;;9.82;45.16
70256;BME280;57669;52.624;-1.688;2023-02-12T02:02:45;103165.88;;;9.50;45.72
70256;BME280;57669;52.624;-1.688;2023-02-12T02:05:09;103161.42;;;9.21;45.84
70256;BME280;57669;52.624;-1.688;2023-02-12T02:07:34;103157.57;;;9.86;45.34
70256;BME280;57669;52.624;-1.688;2023-02-12T02:10:00;103151.46;;;10.09;44.06
70256;BME280;57669;52.624;-1.688;2023-02-12T02:12:26;103162.00;;;9.95;44.89
70256;BME280;57669;52.624;-1.688;2023-02-12T02:14:54;103167.76;;;8.90;46.71
70256;BME280;57669;52.624;-1.688;2023-02-12T02:17:30;103167.76;;;9.10;46.46
70256;BME280;57669;52.624;-1.688;2023-02-12T02:19:55;103168.00;;;9.98;44.85
70256;BME280;57669;52.624;-1.688;2023-02-12T02:22:17;103164.55;;;9.90;45.22
70256;BME280;57669;52.624;-1.688;2023-02-12T02:27:09;103160.38;;;9.04;46.14
70256;BME280;57669;52.624;-1.688;2023-02-12T02:31:55;103148.36;;;9.70;44.53
70256;BME280;57669;52.624;-1.688;2023-02-12T02:34:28;103151.64;;;10.09;44.12
70256;BME280;57669;52.624;-1.688;2023-02-12T02:36:45;103152.11;;;9.33;45.61
70256;BME280;57669;52.624;-1.688;2023-02-12T02:39:12;103148.12;;;9.28;45.72
70256;BME280;57669;52.624;-1.688;2023-02-12T02:41:35;103152.66;;;9.82;45.30
70256;BME280;57669;52.624;-1.688;2023-02-12T02:43:58;103149.82;;;10.24;44.44
70256;BME280;57669;52.624;-1.688;2023-02-12T02:46:26;103158.06;;;9.55;45.26
70256;BME280;57669;52.624;-1.688;2023-02-12T02:51:18;103163.08;;;9.24;45.84
70256;BME280;57669;52.624;-1.688;2023-02-12T02:53:42;103164.51;;;9.33;46.07
70256;BME280;57669;52.624;-1.688;2023-02-12T02:56:08;103153.72;;;9.08;46.48
70256;BME280;57669;52.624;-1.688;2023-02-12T02:58:35;103154.27;;;9.35;45.54
70256;BME280;57669;52.624;-1.688;2023-02-12T03:01:00;103160.38;;;9.68;45.56
70256;BME280;57669;52.624;-1.688;2023-02-12T03:03:25;103155.27;;;9.16;45.81
70256;BME280;57669;52.624;-1.688;2023-02-12T03:05:49;103144.22;;;9.50;45.53
70256;BME280;57669;52.624;-1.688;2023-02-12T03:08:16;103139.89;;;9.93;44.22
70256;BME280;57669;52.624;-1.688;2023-02-12T03:10:41;103149.06;;;9.07;45.76
70256;BME280;57669;52.624;-1.688;2023-02-12T03:13:07;103138.17;;;9.15;46.25
70256;BME280;57669;52.624;-1.688;2023-02-12T03:15:33;103140.03;;;9.23;46.12
70256;BME280;57669;52.624;-1.688;2023-02-12T03:17:55;103145.62;;;9.78;45.05
70256;BME280;57669;52.624;-1.688;2023-02-12T03:20:22;103147.13;;;9.70;45.58
70256;BME280;57669;52.624;-1.688;2023-02-12T03:22:48;103141.90;;;8.84;46.87
70256;BME280;57669;52.624;-1.688;2023-02-12T03:25:13;103145.75;;;8.76;46.99
70256;BME280;57669;52.624;-1.688;2023-02-12T03:27:40;103145.21;;;9.59;45.63
70256;BME280;57669;52.624;-1.688;2023-02-12T03:30:03;103144.24;;;8.92;46.72
70256;BME280;57669;52.624;-1.688;2023-02-12T03:32:30;103141.33;;;8.30;48.13
70256;BME280;57669;52.624;-1.688;2023-02-12T03:34:57;103149.28;;;7.87;48.70
70256;BME280;57669;52.624;-1.688;2023-02-12T03:37:23;103152.82;;;8.60;47.21
70256;BME280;57669;52.624;-1.688;2023-02-12T03:39:49;103148.15;;;8.35;47.86
70256;BME280;57669;52.624;-1.688;2023-02-12T03:42:13;103152.42;;;9.09;46.45
70256;BME280;57669;52.624;-1.688;2023-02-12T03:44:45;103154.81;;;8.83;46.95
70256;BME280;57669;52.624;-1.688;2023-02-12T03:47:02;103157.73;;;9.42;46.00
70256;BME280;57669;52.624;-1.688;2023-02-12T03:49:29;103158.55;;;8.90;46.74
70256;BME280;57669;52.624;-1.688;2023-02-12T03:51:51;103157.22;;;8.66;47.36
70256;BME280;57669;52.624;-1.688;2023-02-12T03:54:17;103155.90;;;7.89;48.72
70256;BME280;57669;52.624;-1.688;2023-02-12T03:56:45;103152.75;;;7.98;49.09
70256;BME280;57669;52.624;-1.688;2023-02-12T03:59:07;103144.92;;;8.14;48.38
70256;BME280;57669;52.624;-1.688;2023-02-12T04:01:34;103145.20;;;9.53;46.33
70256;BME280;57669;52.624;-1.688;2023-02-12T04:03:58;103145.82;;;9.35;46.37
70256;BME280;57669;52.624;-1.688;2023-02-12T04:06:25;103149.76;;;8.90;47.20
70256;BME280;57669;52.624;-1.688;2023-02-12T04:08:48;103150.50;;;8.94;46.79
70256;BME280;57669;52.624;-1.688;2023-02-12T04:11:22;103150.69;;;9.29;46.08
70256;BME280;57669;52.624;-1.688;2023-02-12T04:13:43;103159.97;;;9.48;46.01
70256;BME280;57669;52.624;-1.688;2023-02-12T04:16:13;103151.02;;;8.44;47.45
70256;BME280;57669;52.624;-1.688;2023-02-12T04:18:36;103156.30;;;9.32;45.89
70256;BME280;57669;52.624;-1.688;2023-02-12T04:21:06;103162.64;;;8.94;46.57
70256;BME280;57669;52.624;-1.688;2023-02-12T04:23:32;103167.38;;;9.24;46.04
70256;BME280;57669;52.624;-1.688;2023-02-12T04:25:52;103160.24;;;9.11;46.58
70256;BME280;57669;52.624;-1.688;2023-02-12T04:28:18;103155.90;;;9.00;45.96
70256;BME280;57669;52.624;-1.688;2023-02-12T04:30:42;103160.98;;;9.54;45.42
70256;BME280;57669;52.624;-1.688;2023-02-12T04:33:03;103168.28;;;9.43;45.66
70256;BME280;57669;52.624;-1.688;2023-02-12T04:35:31;103171.40;;;9.24;45.58
70256;BME280;57669;52.624;-1.688;2023-02-12T04:37:58;103171.09;;;9.11;46.10
70256;BME280;57669;52.624;-1.688;2023-02-12T04:40:20;103167.86;;;9.28;45.92
70256;BME280;57669;52.624;-1.688;2023-02-12T04:42:46;103165.21;;;9.01;46.20
70256;BME280;57669;52.624;-1.688;2023-02-12T04:45:10;103166.70;;;9.29;45.88
70256;BME280;57669;52.624;-1.688;2023-02-12T04:47:35;103166.60;;;9.34;45.80
70256;BME280;57669;52.624;-1.688;2023-02-12T04:50:00;103166.38;;;9.38;45.65
70256;BME280;57669;52.624;-1.688;2023-02-12T04:52:25;103166.01;;;9.20;45.98
70256;BME280;57669;52.624;-1.688;2023-02-12T04:54:51;103166.04;;;9.23;45.40
70256;BME280;57669;52.624;-1.688;2023-02-12T04:57:16;103168.77;;;9.22;45.76
70256;BME280;57669;52.624;-1.688;2023-02-12T04:59:41;103171.98;;;9.15;46.03
70256;BME280;57669;52.624;-1.688;2023-02-12T05:02:06;103171.86;;;8.91;46.43
70256;BME280;57669;52.624;-1.688;2023-02-12T05:04:32;103169.13;;;9.47;45.33
70256;BME280;57669;52.624;-1.688;2023-02-12T05:06:57;103170.77;;;9.82;44.78
70256;BME280;57669;52.624;-1.688;2023-02-12T05:09:22;103169.77;;;9.92;44.91
70256;BME280;57669;52.624;-1.688;2023-02-12T05:11:48;103162.20;;;8.71;46.22
70256;BME280;57669;52.624;-1.688;2023-02-12T05:14:14;103160.12;;;8.78;46.66
70256;BME280;57669;52.624;-1.688;2023-02-12T05:16:39;103166.85;;;8.86;46.37
70256;BME280;57669;52.624;-1.688;2023-02-12T05:19:04;103162.14;;;8.81;46.43
70256;BME280;57669;52.624;-1.688;2023-02-12T05:21:30;103155.80;;;8.52;46.84
70256;BME280;57669;52.624;-1.688;2023-02-12T05:23:55;103158.71;;;8.78;46.23
70256;BME280;57669;52.624;-1.688;2023-02-12T05:26:21;103153.94;;;8.09;47.53
70256;BME280;57669;52.624;-1.688;2023-02-12T05:28:46;103148.89;;;8.73;47.14
70256;BME280;57669;52.624;-1.688;2023-02-12T05:31:13;103149.70;;;8.56;46.78
70256;BME280;57669;52.624;-1.688;2023-02-12T05:33:37;103148.20;;;8.61;46.74
70256;BME280;57669;52.624;-1.688;2023-02-12T05:36:03;103152.85;;;8.80;46.13
70256;BME280;57669;52.624;-1.688;2023-02-12T05:38:27;103147.54;;;8.35;47.04
70256;BME280;57669;52.624;-1.688;2023-02-12T05:40:52;103144.90;;;8.83;46.38
70256;BME280;57669;52.624;-1.688;2023-02-12T05:43:17;103146.25;;;8.85;46.99
70256;BME280;57669;52.624;-1.688;2023-02-12T05:45:43;103145.01;;;8.02;47.71
70256;BME280;57669;52.624;-1.688;2023-02-12T05:48:08;103144.89;;;8.99;45.96
70256;BME280;57669;52.624;-1.688;2023-02-12T05:50:33;103147.26;;;8.97;46.06
70256;BME280;57669;52.624;-1.688;2023-02-12T05:52:59;103153.46;;;8.91;45.94
70256;BME280;57669;52.624;-1.688;2023-02-12T05:55:25;103147.62;;;8.45;46.72
70256;BME280;57669;52.624;-1.688;2023-02-12T05:57:51;103151.97;;;8.88;46.05
70256;BME280;57669;52.624;-1.688;2023-02-12T06:00:16;103148.71;;;8.76;46.09
70256;BME280;57669;52.624;-1.688;2023-02-12T06:02:41;103143.93;;;8.59;46.23
70256;BME280;57669;52.624;-1.688;2023-02-12T06:05:07;103144.12;;;8.60;46.30
70256;BME280;57669;52.624;-1.688;2023-02-12T06:07:32;103141.41;;;8.19;46.48
70256;BME280;57669;52.624;-1.688;2023-02-12T06:09:58;103144.92;;;8.71;45.72
70256;BME280;57669;52.624;-1.688;2023-02-12T06:12:23;103144.24;;;9.02;45.16
70256;BME280;57669;52.624;-1.688;2023-02-12T06:14:50;103147.61;;;9.21;45.73
70256;BME280;57669;52.624;-1.688;2023-02-12T06:17:15;103146.78;;;9.01;45.29
70256;BME280;57669;52.624;-1.688;2023-02-12T06:19:40;103146.82;;;8.59;45.78
70256;BME280;57669;52.624;-1.688;2023-02-12T06:22:05;103142.02;;;9.19;45.76
70256;BME280;57669;52.624;-1.688;2023-02-12T06:24:31;103138.55;;;8.67;45.69
70256;BME280;57669;52.624;-1.688;2023-02-12T06:26:56;103131.21;;;9.08;44.85
70256;BME280;57669;52.624;-1.688;2023-02-12T06:29:22;103135.36;;;8.98;45.47
70256;BME280;57669;52.624;-1.688;2023-02-12T06:31:48;103136.57;;;8.77;45.55
70256;BME280;57669;52.624;-1.688;2023-02-12T06:34:13;103139.03;;;8.75;45.77
70256;BME280;57669;52.624;-1.688;2023-02-12T06:36:40;103137.83;;;8.37;46.21
70256;BME280;57669;52.624;-1.688;2023-02-12T06:39:04;103144.22;;;8.50;46.21
70256;BME280;57669;52.624;-1.688;2023-02-12T06:41:29;103140.42;;;8.84;46.39
70256;BME280;57669;52.624;-1.688;2023-02-12T06:43:54;103140.96;;;8.70;45.92
70256;BME280;57669;52.624;-1.688;2023-02-12T06:46:20;103145.16;;;8.39;46.40
70256;BME280;57669;52.624;-1.688;2023-02-12T06:48:45;103141.02;;;8.94;45.53
70256;BME280;57669;52.624;-1.688;2023-02-12T06:51:12;103142.12;;;9.38;44.68
70256;BME280;57669;52.624;-1.688;2023-02-12T06:53:37;103142.58;;;8.78;45.96
70256;BME280;57669;52.624;-1.688;2023-02-12T06:56:02;103143.05;;;9.16;45.15
70256;BME280;57669;52.624;-1.688;2023-02-12T06:58:27;103136.48;;;7.30;48.23
70256;BME280;57669;52.624;-1.688;2023-02-12T07:00:53;103146.38;;;8.88;45.48
70256;BME280;57669;52.624;-1.688;2023-02-12T07:03:18;103146.63;;;8.64;45.94
70256;BME280;57669;52.624;-1.688;2023-02-12T07:05:44;103140.25;;;8.84;46.43
70256;BME280;57669;52.624;-1.688;2023-02-12T07:08:09;103141.62;;;8.99;46.15
70256;BME280;57669;52.624;-1.688;2023-02-12T07:10:34;103145.52;;;8.45;46.26
70256;BME280;57669;52.624;-1.688;2023-02-12T07:13:00;103146.77;;;8.78;46.04
70256;BME280;57669;52.624;-1.688;2023-02-12T07:15:25;103142.14;;;8.41;46.55
70256;BME280;57669;52.624;-1.688;2023-02-12T07:17:50;103147.33;;;8.62;45.78
70256;BME280;57669;52.624;-1.688;2023-02-12T07:22:42;103151.62;;;8.55;46.02
70256;BME280;57669;52.624;-1.688;2023-02-12T07:25:07;103152.07;;;8.57;46.12
70256;BME280;57669;52.624;-1.688;2023-02-12T07:27:35;103151.32;;;8.29;46.66
70256;BME280;57669;52.624;-1.688;2023-02-12T07:29:58;103158.90;;;9.11;45.18
70256;BME280;57669;52.624;-1.688;2023-02-12T07:32:24;103162.85;;;8.98;45.54
70256;BME280;57669;52.624;-1.688;2023-02-12T07:34:50;103167.43;;;9.05;45.34
70256;BME280;57669;52.624;-1.688;2023-02-12T07:37:16;103166.55;;;8.57;46.29
70256;BME280;57669;52.624;-1.688;2023-02-12T07:39:42;103165.20;;;8.52;46.66
70256;BME280;57669;52.624;-1.688;2023-02-12T07:42:07;103164.45;;;8.41;46.55
70256;BME280;57669;52.624;-1.688;2023-02-12T07:44:33;103170.74;;;8.28;46.67
70256;BME280;57669;52.624;-1.688;2023-02-12T07:46:58;103171.63;;;8.49;46.36
70256;BME280;57669;52.624;-1.688;2023-02-12T07:49:23;103178.32;;;8.09;47.73
70256;BME280;57669;52.624;-1.688;2023-02-12T07:51:49;103174.40;;;8.60;46.41
70256;BME280;57669;52.624;-1.688;2023-02-12T07:54:14;103176.82;;;8.89;45.65
70256;BME280;57669;52.624;-1.688;2023-02-12T07:56:44;103176.63;;;8.62;46.22
70256;BME280;57669;52.624;-1.688;2023-02-12T07:59:06;103177.42;;;8.77;46.87
70256;BME280;57669;52.624;-1.688;2023-02-12T08:01:32;103184.47;;;8.94;46.74
70256;BME280;57669;52.624;-1.688;2023-02-12T08:03:58;103190.95;;;8.89;45.99
70256;BME280;57669;52.624;-1.688;2023-02-12T08:06:24;103183.92;;;8.61;46.31
70256;BME280;57669;52.624;-1.688;2023-02-12T08:08:47;103185.32;;;9.00;45.94
70256;BME280;57669;52.624;-1.688;2023-02-12T08:11:13;103175.60;;;8.43;46.65
70256;BME280;57669;52.624;-1.688;2023-02-12T08:13:38;103178.01;;;9.34;46.02
70256;BME280;57669;52.624;-1.688;2023-02-12T08:16:08;103174.05;;;8.53;46.49
70256;BME280;57669;52.624;-1.688;2023-02-12T08:18:29;103173.05;;;8.67;46.29
70256;BME280;57669;52.624;-1.688;2023-02-12T08:20:54;103178.94;;;8.29;46.81
70256;BME280;57669;52.624;-1.688;2023-02-12T08:23:19;103185.55;;;9.17;45.42
70256;BME280;57669;52.624;-1.688;2023-02-12T08:25:44;103186.94;;;8.78;46.14
70256;BME280;57669;52.624;-1.688;2023-02-12T08:28:10;103187.26;;;9.10;45.81
70256;BME280;57669;52.624;-1.688;2023-02-12T08:30:35;103191.22;;;8.87;45.98
70256;BME280;57669;52.624;-1.688;2023-02-12T08:33:01;103188.34;;;8.50;46.30
70256;BME280;57669;52.624;-1.688;2023-02-12T08:35:27;103188.50;;;9.21;46.39
70256;BME280;57669;52.624;-1.688;2023-02-12T08:37:52;103192.07;;;8.50;46.46
70256;BME280;57669;52.624;-1.688;2023-02-12T08:40:18;103196.30;;;8.27;46.73
70256;BME280;57669;52.624;-1.688;2023-02-12T08:42:43;103197.57;;;8.03;47.25
70256;BME280;57669;52.624;-1.688;2023-02-12T08:45:09;103195.40;;;8.60;46.12
70256;BME280;57669;52.624;-1.688;2023-02-12T08:47:34;103195.12;;;7.99;47.06
70256;BME280;57669;52.624;-1.688;2023-02-12T08:50:00;103198.48;;;7.90;47.60
70256;BME280;57669;52.624;-1.688;2023-02-12T08:52:25;103196.24;;;8.75;46.07
70256;BME280;57669;52.624;-1.688;2023-02-12T08:54:51;103196.82;;;8.39;47.25
70256;BME280;57669;52.624;-1.688;2023-02-12T08:57:16;103193.80;;;8.16;46.55
70256;BME280;57669;52.624;-1.688;2023-02-12T08:59:41;103198.53;;;8.27;46.26
70256;BME280;57669;52.624;-1.688;2023-02-12T09:02:08;103196.09;;;8.59;46.15
70256;BME280;57669;52.624;-1.688;2023-02-12T09:04:32;103191.18;;;8.71;45.55
70256;BME280;57669;52.624;-1.688;2023-02-12T09:06:57;103194.55;;;8.37;45.62
70256;BME280;57669;52.624;-1.688;2023-02-12T09:09:23;103191.74;;;8.13;46.12
70256;BME280;57669;52.624;-1.688;2023-02-12T09:11:48;103196.25;;;7.18;47.51
70256;BME280;57669;52.624;-1.688;2023-02-12T09:14:15;103192.56;;;7.69;47.50
70256;BME280;57669;52.624;-1.688;2023-02-12T09:16:39;103193.12;;;7.04;48.32
70256;BME280;57669;52.624;-1.688;2023-02-12T09:19:04;103195.44;;;7.55;47.90
70256;BME280;57669;52.624;-1.688;2023-02-12T09:21:29;103189.49;;;7.82;47.59
70256;BME280;57669;52.624;-1.688;2023-02-12T09:23:55;103180.83;;;7.49;47.37
70256;BME280;57669;52.624;-1.688;2023-02-12T09:26:21;103182.35;;;8.23;46.50
70256;BME280;57669;52.624;-1.688;2023-02-12T09:28:45;103184.67;;;7.75;47.06
70256;BME280;57669;52.624;-1.688;2023-02-12T09:31:11;103184.43;;;7.92;46.69
70256;BME280;57669;52.624;-1.688;2023-02-12T09:33:36;103185.43;;;8.41;46.30
70256;BME280;57669;52.624;-1.688;2023-02-12T09:36:02;103186.16;;;8.36;45.29
70256;BME280;57669;52.624;-1.688;2023-02-12T09:38:27;103188.25;;;7.84;46.73
70256;BME280;57669;52.624;-1.688;2023-02-12T09:41:04;103182.86;;;7.89;46.57
70256;BME280;57669;52.624;-1.688;2023-02-12T09:43:25;103182.61;;;7.75;46.58
70256;BME280;57669;52.624;-1.688;2023-02-12T09:45:50;103179.58;;;8.42;45.33
70256;BME280;57669;52.624;-1.688;2023-02-12T09:48:28;103180.62;;;8.32;45.41
70256;BME280;57669;52.624;-1.688;2023-02-12T09:50:41;103184.68;;;9.18;43.80
70256;BME280;57669;52.624;-1.688;2023-02-12T09:53:00;103182.26;;;8.18;45.07
70256;BME280;57669;52.624;-1.688;2023-02-12T09:55:29;103181.54;;;8.69;45.96
70256;BME280;57669;52.624;-1.688;2023-02-12T09:57:50;103183.15;;;8.22;46.03
70256;BME280;57669;52.624;-1.688;2023-02-12T10:00:21;103187.22;;;8.86;44.77
70256;BME280;57669;52.624;-1.688;2023-02-12T10:02:42;103190.83;;;8.34;45.77
70256;BME280;57669;52.624;-1.688;2023-02-12T10:05:15;103191.17;;;8.38;45.28
70256;BME280;57669;52.624;-1.688;2023-02-12T10:07:44;103187.52;;;8.23;46.07
70256;BME280;57669;52.624;-1.688;2023-02-12T10:10:11;103187.22;;;7.41;47.48
70256;BME280;57669;52.624;-1.688;2023-02-12T10:12:29;103184.99;;;8.69;44.91
70256;BME280;57669;52.624;-1.688;2023-02-12T10:14:58;103189.28;;;7.96;46.84
70256;BME280;57669;52.624;-1.688;2023-02-12T10:17:22;103194.07;;;8.42;45.77
70256;BME280;57669;52.624;-1.688;2023-02-12T10:19:50;103188.50;;;9.00;44.80
70256;BME280;57669;52.624;-1.688;2023-02-12T10:22:12;103188.63;;;8.48;45.12
70256;BME280;57669;52.624;-1.688;2023-02-12T10:24:43;103186.20;;;9.53;43.63
70256;BME280;57669;52.624;-1.688;2023-02-12T10:27:00;103181.51;;;9.39;43.74
70256;BME280;57669;52.624;-1.688;2023-02-12T10:29:24;103177.59;;;8.41;45.01
70256;BME280;57669;52.624;-1.688;2023-02-12T10:31:51;103177.40;;;8.79;44.30
70256;BME280;57669;52.624;-1.688;2023-02-12T10:34:17;103172.08;;;8.91;43.91
70256;BME280;57669;52.624;-1.688;2023-02-12T10:36:42;103180.44;;;9.30;43.98
70256;BME280;57669;52.624;-1.688;2023-02-12T10:39:11;103183.86;;;8.13;44.59
70256;BME280;57669;52.624;-1.688;2023-02-12T10:41:30;103185.16;;;8.85;43.59
70256;BME280;57669;52.624;-1.688;2023-02-12T10:43:56;103181.42;;;8.09;45.63
70256;BME280;57669;52.624;-1.688;2023-02-12T10:46:21;103183.12;;;8.16;46.62
70256;BME280;57669;52.624;-1.688;2023-02-12T10:48:49;103179.32;;;8.98;44.16
70256;BME280;57669;52.624;-1.688;2023-02-12T10:53:39;103177.82;;;8.79;44.57
70256;BME280;57669;52.624;-1.688;2023-02-12T10:56:14;103178.28;;;9.53;43.73
70256;BME280;57669;52.624;-1.688;2023-02-12T10:58:29;103179.33;;;9.02;43.91
70256;BME280;57669;52.624;-1.688;2023-02-12T11:00:58;103174.42;;;8.32;43.55
70256;BME280;57669;52.624;-1.688;2023-02-12T11:03:21;103175.75;;;7.84;44.56
70256;BME280;57669;52.624;-1.688;2023-02-12T11:05:44;103177.37;;;7.77;45.62
70256;BME280;57669;52.624;-1.688;2023-02-12T11:10:38;103180.54;;;8.03;43.76
70256;BME280;57669;52.624;-1.688;2023-02-12T11:13:00;103174.67;;;8.01;44.12
70256;BME280;57669;52.624;-1.688;2023-02-12T11:15:28;103175.41;;;8.00;43.55
70256;BME280;57669;52.624;-1.688;2023-02-12T11:18:06;103176.08;;;6.56;45.86
70256;BME280;57669;52.624;-1.688;2023-02-12T11:20:32;103181.08;;;7.95;44.43
70256;BME280;57669;52.624;-1.688;2023-02-12T11:22:48;103178.71;;;7.91;44.42
70256;BME280;57669;52.624;-1.688;2023-02-12T11:25:14;103178.41;;;8.10;43.60
70256;BME280;57669;52.624;-1.688;2023-02-12T11:27:34;103182.09;;;7.53;44.21
70256;BME280;57669;52.624;-1.688;2023-02-12T11:30:15;103176.91;;;7.77;43.84
70256;BME280;57669;52.624;-1.688;2023-02-12T11:32:25;103178.22;;;7.99;44.37
70256;BME280;57669;52.624;-1.688;2023-02-12T11:37:18;103176.17;;;8.11;44.70
70256;BME280;57669;52.624;-1.688;2023-02-12T11:39:45;103177.00;;;7.52;44.66
70256;BME280;57669;52.624;-1.688;2023-02-12T11:42:14;103179.42;;;7.55;45.74
70256;BME280;57669;52.624;-1.688;2023-02-12T11:44:35;103169.86;;;6.44;46.79
70256;BME280;57669;52.624;-1.688;2023-02-12T11:47:00;103165.77;;;6.95;46.87
70256;BME280;57669;52.624;-1.688;2023-02-12T11:49:26;103163.02;;;6.68;47.04
70256;BME280;57669;52.624;-1.688;2023-02-12T11:51:48;103168.11;;;7.98;44.75
70256;BME280;57669;52.624;-1.688;2023-02-12T11:54:18;103166.82;;;7.96;44.37
70256;BME280;57669;52.624;-1.688;2023-02-12T11:56:41;103167.11;;;7.63;45.06
70256;BME280;57669;52.624;-1.688;2023-02-12T11:59:16;103161.55;;;7.05;46.13
70256;BME280;57669;52.624;-1.688;2023-02-12T12:01:33;103153.05;;;7.30;45.65
70256;BME280;57669;52.624;-1.688;2023-02-12T12:04:02;103143.35;;;7.84;45.02
70256;BME280;57669;52.624;-1.688;2023-02-12T12:06:28;103139.61;;;8.18;43.03
70256;BME280;57669;52.624;-1.688;2023-02-12T12:08:51;103138.41;;;8.60;42.56
70256;BME280;57669;52.624;-1.688;2023-02-12T12:11:17;103138.69;;;8.38;42.75
70256;BME280;57669;52.624;-1.688;2023-02-12T12:13:43;103136.38;;;7.94;44.27
70256;BME280;57669;52.624;-1.688;2023-02-12T12:16:09;103132.59;;;7.90;44.64
70256;BME280;57669;52.624;-1.688;2023-02-12T12:18:35;103131.50;;;8.54;43.61
70256;BME280;57669;52.624;-1.688;2023-02-12T12:21:02;103129.34;;;8.91;42.66
70256;BME280;57669;52.624;-1.688;2023-02-12T12:23:27;103125.47;;;8.99;42.20
70256;BME280;57669;52.624;-1.688;2023-02-12T12:25:51;103120.80;;;9.52;40.97
70256;BME280;57669;52.624;-1.688;2023-02-12T12:28:26;103119.35;;;9.41;40.76
70256;BME280;57669;52.624;-1.688;2023-02-12T12:30:47;103122.74;;;9.55;40.34
70256;BME280;57669;52.624;-1.688;2023-02-12T12:33:06;103119.93;;;9.55;40.84
70256;BME280;57669;52.624;-1.688;2023-02-12T12:35:36;103119.16;;;9.16;41.56
70256;BME280;57669;52.624;-1.688;2023-02-12T12:37:58;103111.61;;;9.07;41.67
70256;BME280;57669;52.624;-1.688;2023-02-12T12:40:33;103114.17;;;8.90;41.76
70256;BME280;57669;52.624;-1.688;2023-02-12T12:42:58;103108.45;;;9.23;41.37
70256;BME280;57669;52.624;-1.688;2023-02-12T12:45:24;103105.03;;;8.94;41.94
70256;BME280;57669;52.624;-1.688;2023-02-12T12:47:43;103099.80;;;9.11;41.64
70256;BME280;57669;52.624;-1.688;2023-02-12T12:52:40;103099.51;;;9.15;41.79
70256;BME280;57669;52.624;-1.688;2023-02-12T12:55:04;103092.43;;;8.50;42.83
70256;BME280;57669;52.624;-1.688;2023-02-12T12:57:22;103088.50;;;7.89;43.22
70256;BME280;57669;52.624;-1.688;2023-02-12T13:04:49;103087.98;;;8.08;44.23